TimeCDT,TemperatureF,Dew PointF,Humidity,Sea Level PressureIn,VisibilityMPH,Wind Direction,Wind SpeedMPH,Gust SpeedMPH,PrecipitationIn,Events,Conditions,WindDirDegrees,DateUTC
12:53 AM,71.1,57.0,61,30.05,10.0,NNE,4.6,-,N/A,,Clear,30,2012-10-15 05:53:00
1:53 AM,71.1,55.0,57,30.06,10.0,NE,3.5,-,N/A,,Mostly Cloudy,50,2012-10-15 06:53:00
2:53 AM,70.0,55.0,59,30.07,10.0,Calm,Calm,-,N/A,,Clear,0,2012-10-15 07:53:00
3:53 AM,69.1,54.0,58,30.05,10.0,NNE,3.5,-,N/A,,Clear,30,2012-10-15 08:53:00
4:53 AM,66.9,55.0,66,30.05,10.0,North,3.5,-,N/A,,Clear,360,2012-10-15 09:53:00
5:53 AM,66.9,54.0,63,30.05,10.0,NNE,6.9,-,N/A,,Clear,30,2012-10-15 10:53:00
6:53 AM,66.9,53.1,61,30.06,10.0,NNE,6.9,-,N/A,,Clear,30,2012-10-15 11:53:00
7:53 AM,66.0,53.1,63,30.07,10.0,NNE,5.8,-,N/A,,Clear,30,2012-10-15 12:53:00
8:53 AM,69.1,53.1,57,30.08,10.0,NNE,5.8,-,N/A,,Clear,30,2012-10-15 13:53:00
9:53 AM,71.1,54.0,55,30.10,10.0,ENE,8.1,-,N/A,,Clear,70,2012-10-15 14:53:00
10:53 AM,73.9,54.0,50,30.09,10.0,ENE,9.2,-,N/A,,Clear,60,2012-10-15 15:53:00
11:53 AM,75.0,52.0,44,30.09,10.0,ENE,8.1,-,N/A,,Clear,70,2012-10-15 16:53:00
12:53 PM,75.9,52.0,43,30.07,10.0,ENE,8.1,-,N/A,,Clear,70,2012-10-15 17:53:00
1:53 PM,77.0,51.1,40,30.04,10.0,East,8.1,-,N/A,,Clear,80,2012-10-15 18:53:00
2:53 PM,78.1,50.0,37,30.01,10.0,NE,6.9,-,N/A,,Clear,50,2012-10-15 19:53:00
3:53 PM,78.1,50.0,37,29.99,10.0,NE,4.6,-,N/A,,Clear,40,2012-10-15 20:53:00
4:53 PM,78.1,50.0,37,29.97,10.0,ENE,4.6,-,N/A,,Clear,70,2012-10-15 21:53:00
5:53 PM,75.9,50.0,40,29.97,10.0,East,4.6,-,N/A,,Clear,80,2012-10-15 22:53:00
6:53 PM,73.9,52.0,46,29.98,10.0,NE,3.5,-,N/A,,Clear,50,2012-10-15 23:53:00
7:53 PM,72.0,55.0,55,29.99,10.0,Calm,Calm,-,N/A,,Clear,0,2012-10-16 00:53:00
8:53 PM,66.9,60.1,79,29.99,10.0,Calm,Calm,-,N/A,,Clear,0,2012-10-16 01:53:00
9:53 PM,69.1,57.9,68,30.00,10.0,Calm,Calm,-,N/A,,Clear,0,2012-10-16 02:53:00
10:53 PM,69.1,57.0,65,29.99,10.0,Calm,Calm,-,N/A,,Clear,0,2012-10-16 03:53:00
11:53 PM,66.9,55.9,68,29.98,10.0,Calm,Calm,-,N/A,,Clear,0,2012-10-16 04:53:00